sensor_id;sensor_type;location;lat;lon;timestamp;P1;durP1;ratioP1;P2;durP2;ratioP2
13927;SDS011;7036;50.834;4.718;2022-10-16T00:00:49;1.10;;;1.02;;
13927;SDS011;7036;50.834;4.718;2022-10-16T00:03:17;1.50;;;1.30;;
13927;SDS011;7036;50.834;4.718;2022-10-16T00:05:45;1.52;;;1.27;;
13927;SDS011;7036;50.834;4.718;2022-10-16T00:08:13;1.63;;;1.30;;
13927;SDS011;7036;50.834;4.718;2022-10-16T00:10:40;1.17;;;1.08;;
13927;SDS011;7036;50.834;4.718;2022-10-16T00:13:07;1.37;;;1.27;;
13927;SDS011;7036;50.834;4.718;2022-10-16T00:15:35;1.48;;;1.30;;
13927;SDS011;7036;50.834;4.718;2022-10-16T00:18:04;2.87;;;1.00;;
13927;SDS011;7036;50.834;4.718;2022-10-16T00:20:33;1.42;;;1.20;;
13927;SDS011;7036;50.834;4.718;2022-10-16T00:22:58;1.42;;;0.95;;
13927;SDS011;7036;50.834;4.718;2022-10-16T00:25:26;1.27;;;1.00;;
13927;SDS011;7036;50.834;4.718;2022-10-16T00:27:54;2.15;;;1.00;;
13927;SDS011;7036;50.834;4.718;2022-10-16T00:30:22;1.23;;;1.10;;
13927;SDS011;7036;50.834;4.718;2022-10-16T00:32:50;1.85;;;1.40;;
13927;SDS011;7036;50.834;4.718;2022-10-16T00:35:18;2.20;;;1.42;;
13927;SDS011;7036;50.834;4.718;2022-10-16T00:37:46;1.88;;;1.30;;
13927;SDS011;7036;50.834;4.718;2022-10-16T00:40:14;1.45;;;1.35;;
13927;SDS011;7036;50.834;4.718;2022-10-16T00:42:42;1.20;;;1.08;;
13927;SDS011;7036;50.834;4.718;2022-10-16T00:45:09;1.38;;;1.10;;
13927;SDS011;7036;50.834;4.718;2022-10-16T00:47:40;1.60;;;1.23;;
13927;SDS011;7036;50.834;4.718;2022-10-16T00:50:26;1.30;;;1.20;;
13927;SDS011;7036;50.834;4.718;2022-10-16T00:52:53;1.77;;;1.20;;
13927;SDS011;7036;50.834;4.718;2022-10-16T00:55:21;2.17;;;1.20;;
13927;SDS011;7036;50.834;4.718;2022-10-16T00:57:48;1.05;;;1.02;;
13927;SDS011;7036;50.834;4.718;2022-10-16T01:00:17;2.15;;;1.38;;
13927;SDS011;7036;50.834;4.718;2022-10-16T01:02:43;1.02;;;0.90;;
13927;SDS011;7036;50.834;4.718;2022-10-16T01:05:11;1.40;;;1.00;;
13927;SDS011;7036;50.834;4.718;2022-10-16T01:10:29;1.03;;;0.80;;
13927;SDS011;7036;50.834;4.718;2022-10-16T01:20:57;2.10;;;1.30;;
13927;SDS011;7036;50.834;4.718;2022-10-16T01:25:59;2.90;;;1.30;;
13927;SDS011;7036;50.834;4.718;2022-10-16T01:28:47;1.43;;;1.00;;
13927;SDS011;7036;50.834;4.718;2022-10-16T01:31:13;0.97;;;0.83;;
13927;SDS011;7036;50.834;4.718;2022-10-16T01:33:43;0.90;;;0.83;;
13927;SDS011;7036;50.834;4.718;2022-10-16T01:36:10;1.67;;;1.30;;
13927;SDS011;7036;50.834;4.718;2022-10-16T01:38:38;1.60;;;0.90;;
13927;SDS011;7036;50.834;4.718;2022-10-16T01:41:11;1.10;;;1.00;;
13927;SDS011;7036;50.834;4.718;2022-10-16T01:43:35;1.97;;;1.20;;
13927;SDS011;7036;50.834;4.718;2022-10-16T01:46:01;1.77;;;1.10;;
13927;SDS011;7036;50.834;4.718;2022-10-16T01:48:29;1.85;;;1.20;;
13927;SDS011;7036;50.834;4.718;2022-10-16T01:51:03;1.23;;;1.10;;
13927;SDS011;7036;50.834;4.718;2022-10-16T01:53:25;1.20;;;1.10;;
13927;SDS011;7036;50.834;4.718;2022-10-16T01:55:54;1.13;;;0.98;;
13927;SDS011;7036;50.834;4.718;2022-10-16T01:58:20;1.00;;;0.80;;
13927;SDS011;7036;50.834;4.718;2022-10-16T02:00:48;0.70;;;0.70;;
13927;SDS011;7036;50.834;4.718;2022-10-16T02:03:17;1.23;;;1.13;;
13927;SDS011;7036;50.834;4.718;2022-10-16T02:05:51;1.50;;;1.15;;
13927;SDS011;7036;50.834;4.718;2022-10-16T02:08:18;1.90;;;1.00;;
13927;SDS011;7036;50.834;4.718;2022-10-16T02:10:44;0.83;;;0.83;;
13927;SDS011;7036;50.834;4.718;2022-10-16T02:13:13;0.90;;;0.90;;
13927;SDS011;7036;50.834;4.718;2022-10-16T02:15:39;1.23;;;1.10;;
13927;SDS011;7036;50.834;4.718;2022-10-16T02:18:07;0.90;;;0.85;;
13927;SDS011;7036;50.834;4.718;2022-10-16T02:20:37;2.13;;;0.90;;
13927;SDS011;7036;50.834;4.718;2022-10-16T02:23:02;1.55;;;1.10;;
13927;SDS011;7036;50.834;4.718;2022-10-16T02:30:42;1.30;;;1.07;;
13927;SDS011;7036;50.834;4.718;2022-10-16T02:33:11;2.00;;;1.00;;
13927;SDS011;7036;50.834;4.718;2022-10-16T02:35:38;1.43;;;0.90;;
13927;SDS011;7036;50.834;4.718;2022-10-16T02:38:05;1.00;;;0.90;;
13927;SDS011;7036;50.834;4.718;2022-10-16T02:40:33;1.17;;;1.08;;
13927;SDS011;7036;50.834;4.718;2022-10-16T02:43:02;1.17;;;1.08;;
13927;SDS011;7036;50.834;4.718;2022-10-16T02:45:28;1.05;;;0.88;;
13927;SDS011;7036;50.834;4.718;2022-10-16T02:47:56;1.23;;;0.90;;
13927;SDS011;7036;50.834;4.718;2022-10-16T02:50:23;0.85;;;0.82;;
13927;SDS011;7036;50.834;4.718;2022-10-16T02:52:52;1.48;;;1.15;;
13927;SDS011;7036;50.834;4.718;2022-10-16T02:55:18;1.10;;;1.00;;
13927;SDS011;7036;50.834;4.718;2022-10-16T02:57:46;2.15;;;1.13;;
13927;SDS011;7036;50.834;4.718;2022-10-16T03:00:14;1.30;;;1.08;;
13927;SDS011;7036;50.834;4.718;2022-10-16T03:02:41;0.85;;;0.85;;
13927;SDS011;7036;50.834;4.718;2022-10-16T03:05:08;0.80;;;0.80;;
13927;SDS011;7036;50.834;4.718;2022-10-16T03:07:35;0.70;;;0.70;;
13927;SDS011;7036;50.834;4.718;2022-10-16T03:10:03;1.90;;;0.85;;
13927;SDS011;7036;50.834;4.718;2022-10-16T03:12:31;2.93;;;1.17;;
13927;SDS011;7036;50.834;4.718;2022-10-16T03:14:57;0.73;;;0.70;;
13927;SDS011;7036;50.834;4.718;2022-10-16T03:17:25;0.80;;;0.80;;
13927;SDS011;7036;50.834;4.718;2022-10-16T03:19:52;2.15;;;1.00;;
13927;SDS011;7036;50.834;4.718;2022-10-16T03:22:20;1.08;;;0.80;;
13927;SDS011;7036;50.834;4.718;2022-10-16T03:24:48;1.00;;;0.90;;
13927;SDS011;7036;50.834;4.718;2022-10-16T03:27:15;1.45;;;1.20;;
13927;SDS011;7036;50.834;4.718;2022-10-16T03:29:42;1.13;;;0.80;;
13927;SDS011;7036;50.834;4.718;2022-10-16T03:32:09;0.75;;;0.65;;
13927;SDS011;7036;50.834;4.718;2022-10-16T03:34:36;0.68;;;0.65;;
13927;SDS011;7036;50.834;4.718;2022-10-16T03:37:04;0.88;;;0.80;;
13927;SDS011;7036;50.834;4.718;2022-10-16T03:39:31;1.00;;;0.77;;
13927;SDS011;7036;50.834;4.718;2022-10-16T03:41:59;0.63;;;0.60;;
13927;SDS011;7036;50.834;4.718;2022-10-16T03:44:26;0.68;;;0.68;;
13927;SDS011;7036;50.834;4.718;2022-10-16T03:46:53;1.05;;;0.95;;
13927;SDS011;7036;50.834;4.718;2022-10-16T03:49:21;1.30;;;0.88;;
13927;SDS011;7036;50.834;4.718;2022-10-16T03:51:48;1.08;;;1.00;;
13927;SDS011;7036;50.834;4.718;2022-10-16T03:54:15;0.85;;;0.85;;
13927;SDS011;7036;50.834;4.718;2022-10-16T03:56:42;1.15;;;1.00;;
13927;SDS011;7036;50.834;4.718;2022-10-16T03:59:10;0.60;;;0.52;;
13927;SDS011;7036;50.834;4.718;2022-10-16T04:01:37;1.20;;;1.10;;
13927;SDS011;7036;50.834;4.718;2022-10-16T04:04:05;1.17;;;0.90;;
13927;SDS011;7036;50.834;4.718;2022-10-16T04:06:32;1.00;;;0.88;;
13927;SDS011;7036;50.834;4.718;2022-10-16T04:08:59;1.05;;;0.90;;
13927;SDS011;7036;50.834;4.718;2022-10-16T04:11:26;0.82;;;0.70;;
13927;SDS011;7036;50.834;4.718;2022-10-16T04:13:54;0.80;;;0.80;;
13927;SDS011;7036;50.834;4.718;2022-10-16T04:16:21;0.73;;;0.73;;
13927;SDS011;7036;50.834;4.718;2022-10-16T04:18:49;2.45;;;1.00;;
13927;SDS011;7036;50.834;4.718;2022-10-16T04:21:17;1.88;;;0.90;;
13927;SDS011;7036;50.834;4.718;2022-10-16T04:23:44;0.70;;;0.70;;
13927;SDS011;7036;50.834;4.718;2022-10-16T04:26:11;1.00;;;0.95;;
13927;SDS011;7036;50.834;4.718;2022-10-16T04:28:38;1.00;;;0.80;;
13927;SDS011;7036;50.834;4.718;2022-10-16T04:31:06;0.80;;;0.80;;
13927;SDS011;7036;50.834;4.718;2022-10-16T04:33:33;0.80;;;0.80;;
13927;SDS011;7036;50.834;4.718;2022-10-16T04:36:02;1.58;;;1.20;;
13927;SDS011;7036;50.834;4.718;2022-10-16T04:38:28;1.17;;;0.83;;
13927;SDS011;7036;50.834;4.718;2022-10-16T04:40:56;1.08;;;0.93;;
13927;SDS011;7036;50.834;4.718;2022-10-16T04:43:24;1.30;;;1.08;;
13927;SDS011;7036;50.834;4.718;2022-10-16T04:45:51;2.35;;;0.85;;
13927;SDS011;7036;50.834;4.718;2022-10-16T04:48:20;1.25;;;1.00;;
13927;SDS011;7036;50.834;4.718;2022-10-16T04:50:47;1.70;;;1.23;;
13927;SDS011;7036;50.834;4.718;2022-10-16T04:53:14;1.02;;;0.88;;
13927;SDS011;7036;50.834;4.718;2022-10-16T04:55:42;1.10;;;1.00;;
13927;SDS011;7036;50.834;4.718;2022-10-16T04:58:10;1.83;;;1.20;;
13927;SDS011;7036;50.834;4.718;2022-10-16T05:00:37;1.17;;;1.00;;
13927;SDS011;7036;50.834;4.718;2022-10-16T05:03:04;0.98;;;0.80;;
13927;SDS011;7036;50.834;4.718;2022-10-16T05:05:31;0.70;;;0.70;;
13927;SDS011;7036;50.834;4.718;2022-10-16T05:07:59;1.63;;;1.05;;
13927;SDS011;7036;50.834;4.718;2022-10-16T05:10:27;1.20;;;0.80;;
13927;SDS011;7036;50.834;4.718;2022-10-16T05:12:54;0.60;;;0.60;;
13927;SDS011;7036;50.834;4.718;2022-10-16T05:15:22;1.23;;;1.13;;
13927;SDS011;7036;50.834;4.718;2022-10-16T05:17:51;0.95;;;0.88;;
13927;SDS011;7036;50.834;4.718;2022-10-16T05:20:17;0.63;;;0.57;;
13927;SDS011;7036;50.834;4.718;2022-10-16T05:22:46;1.90;;;0.90;;
13927;SDS011;7036;50.834;4.718;2022-10-16T05:25:13;1.33;;;1.10;;
13927;SDS011;7036;50.834;4.718;2022-10-16T05:27:40;0.83;;;0.70;;
13927;SDS011;7036;50.834;4.718;2022-10-16T05:30:07;1.02;;;0.93;;
13927;SDS011;7036;50.834;4.718;2022-10-16T05:32:35;1.25;;;1.00;;
13927;SDS011;7036;50.834;4.718;2022-10-16T05:35:02;1.10;;;0.90;;
13927;SDS011;7036;50.834;4.718;2022-10-16T05:37:29;1.67;;;0.90;;
13927;SDS011;7036;50.834;4.718;2022-10-16T05:39:56;1.33;;;0.88;;
13927;SDS011;7036;50.834;4.718;2022-10-16T05:42:26;1.10;;;1.00;;
13927;SDS011;7036;50.834;4.718;2022-10-16T05:44:53;1.60;;;1.07;;
13927;SDS011;7036;50.834;4.718;2022-10-16T05:47:20;1.00;;;0.90;;
13927;SDS011;7036;50.834;4.718;2022-10-16T05:49:47;1.15;;;0.82;;
13927;SDS011;7036;50.834;4.718;2022-10-16T05:52:14;0.80;;;0.80;;
13927;SDS011;7036;50.834;4.718;2022-10-16T05:54:42;0.70;;;0.70;;
13927;SDS011;7036;50.834;4.718;2022-10-16T05:57:09;1.40;;;0.75;;
13927;SDS011;7036;50.834;4.718;2022-10-16T05:59:36;1.13;;;0.80;;
13927;SDS011;7036;50.834;4.718;2022-10-16T06:02:03;0.73;;;0.73;;
13927;SDS011;7036;50.834;4.718;2022-10-16T06:04:31;1.17;;;0.90;;
13927;SDS011;7036;50.834;4.718;2022-10-16T06:06:59;3.78;;;0.82;;
13927;SDS011;7036;50.834;4.718;2022-10-16T06:09:27;1.58;;;1.13;;
13927;SDS011;7036;50.834;4.718;2022-10-16T06:11:54;0.88;;;0.82;;
13927;SDS011;7036;50.834;4.718;2022-10-16T06:14:22;1.50;;;0.90;;
13927;SDS011;7036;50.834;4.718;2022-10-16T06:16:49;1.80;;;0.90;;
13927;SDS011;7036;50.834;4.718;2022-10-16T06:19:18;0.95;;;0.70;;
13927;SDS011;7036;50.834;4.718;2022-10-16T06:21:44;2.83;;;1.10;;
13927;SDS011;7036;50.834;4.718;2022-10-16T06:24:12;2.53;;;1.27;;
13927;SDS011;7036;50.834;4.718;2022-10-16T06:26:40;1.27;;;0.82;;
13927;SDS011;7036;50.834;4.718;2022-10-16T06:29:08;2.47;;;1.17;;
13927;SDS011;7036;50.834;4.718;2022-10-16T06:31:36;1.60;;;1.00;;
13927;SDS011;7036;50.834;4.718;2022-10-16T06:34:04;4.18;;;1.35;;
13927;SDS011;7036;50.834;4.718;2022-10-16T06:36:32;2.78;;;1.30;;
13927;SDS011;7036;50.834;4.718;2022-10-16T06:38:59;2.35;;;1.60;;
13927;SDS011;7036;50.834;4.718;2022-10-16T06:41:27;2.45;;;1.40;;
13927;SDS011;7036;50.834;4.718;2022-10-16T06:43:55;3.33;;;1.83;;
13927;SDS011;7036;50.834;4.718;2022-10-16T06:46:24;1.92;;;1.42;;
13927;SDS011;7036;50.834;4.718;2022-10-16T06:48:51;3.78;;;1.52;;
13927;SDS011;7036;50.834;4.718;2022-10-16T06:51:20;3.70;;;1.33;;
13927;SDS011;7036;50.834;4.718;2022-10-16T06:53:50;2.47;;;1.73;;
13927;SDS011;7036;50.834;4.718;2022-10-16T06:56:15;3.70;;;1.73;;
13927;SDS011;7036;50.834;4.718;2022-10-16T06:58:42;4.25;;;2.10;;
13927;SDS011;7036;50.834;4.718;2022-10-16T07:01:10;2.65;;;1.58;;
13927;SDS011;7036;50.834;4.718;2022-10-16T07:03:41;3.60;;;1.70;;
13927;SDS011;7036;50.834;4.718;2022-10-16T07:06:10;1.83;;;1.53;;
13927;SDS011;7036;50.834;4.718;2022-10-16T07:08:40;3.03;;;1.87;;
13927;SDS011;7036;50.834;4.718;2022-10-16T07:11:08;2.67;;;1.70;;
13927;SDS011;7036;50.834;4.718;2022-10-16T07:13:34;2.47;;;1.67;;
13927;SDS011;7036;50.834;4.718;2022-10-16T07:16:05;1.77;;;1.45;;
13927;SDS011;7036;50.834;4.718;2022-10-16T07:18:35;2.67;;;1.53;;
13927;SDS011;7036;50.834;4.718;2022-10-16T07:23:38;1.90;;;1.40;;
13927;SDS011;7036;50.834;4.718;2022-10-16T07:26:06;2.78;;;1.60;;
13927;SDS011;7036;50.834;4.718;2022-10-16T07:28:33;4.72;;;1.58;;
13927;SDS011;7036;50.834;4.718;2022-10-16T07:31:01;3.53;;;1.88;;
13927;SDS011;7036;50.834;4.718;2022-10-16T07:33:30;2.00;;;1.40;;
13927;SDS011;7036;50.834;4.718;2022-10-16T07:35:57;5.45;;;1.95;;
13927;SDS011;7036;50.834;4.718;2022-10-16T07:38:25;8.30;;;1.80;;
13927;SDS011;7036;50.834;4.718;2022-10-16T07:41:00;6.50;;;2.42;;
13927;SDS011;7036;50.834;4.718;2022-10-16T07:43:26;5.70;;;2.10;;
13927;SDS011;7036;50.834;4.718;2022-10-16T07:45:54;5.13;;;2.13;;
13927;SDS011;7036;50.834;4.718;2022-10-16T07:48:21;5.97;;;1.83;;
13927;SDS011;7036;50.834;4.718;2022-10-16T07:50:48;9.85;;;2.25;;
13927;SDS011;7036;50.834;4.718;2022-10-16T07:53:19;9.52;;;2.30;;
13927;SDS011;7036;50.834;4.718;2022-10-16T07:55:46;12.10;;;2.50;;
13927;SDS011;7036;50.834;4.718;2022-10-16T07:58:14;8.07;;;2.10;;
13927;SDS011;7036;50.834;4.718;2022-10-16T08:00:42;5.22;;;2.42;;
13927;SDS011;7036;50.834;4.718;2022-10-16T08:03:10;10.30;;;2.30;;
13927;SDS011;7036;50.834;4.718;2022-10-16T08:05:37;9.30;;;2.17;;
13927;SDS011;7036;50.834;4.718;2022-10-16T08:08:06;9.65;;;2.80;;
13927;SDS011;7036;50.834;4.718;2022-10-16T08:10:33;6.17;;;2.07;;
13927;SDS011;7036;50.834;4.718;2022-10-16T08:13:00;7.23;;;2.07;;
13927;SDS011;7036;50.834;4.718;2022-10-16T08:15:28;7.30;;;1.88;;
13927;SDS011;7036;50.834;4.718;2022-10-16T08:17:56;4.88;;;2.08;;
13927;SDS011;7036;50.834;4.718;2022-10-16T08:20:23;7.40;;;2.17;;
13927;SDS011;7036;50.834;4.718;2022-10-16T08:22:50;2.35;;;1.50;;
13927;SDS011;7036;50.834;4.718;2022-10-16T08:25:17;4.05;;;2.03;;
13927;SDS011;7036;50.834;4.718;2022-10-16T08:27:45;4.80;;;1.95;;
13927;SDS011;7036;50.834;4.718;2022-10-16T08:30:12;6.47;;;2.22;;
13927;SDS011;7036;50.834;4.718;2022-10-16T08:32:40;5.65;;;1.77;;
13927;SDS011;7036;50.834;4.718;2022-10-16T08:35:08;5.50;;;2.20;;
13927;SDS011;7036;50.834;4.718;2022-10-16T08:37:36;6.03;;;2.28;;
13927;SDS011;7036;50.834;4.718;2022-10-16T08:40:05;5.70;;;1.90;;
13927;SDS011;7036;50.834;4.718;2022-10-16T08:45:30;4.67;;;1.57;;
13927;SDS011;7036;50.834;4.718;2022-10-16T08:50:46;6.30;;;1.77;;
13927;SDS011;7036;50.834;4.718;2022-10-16T08:55:57;4.60;;;2.00;;
13927;SDS011;7036;50.834;4.718;2022-10-16T08:58:28;10.18;;;2.10;;
13927;SDS011;7036;50.834;4.718;2022-10-16T09:00:54;12.07;;;1.93;;
13927;SDS011;7036;50.834;4.718;2022-10-16T09:03:33;6.15;;;1.85;;
13927;SDS011;7036;50.834;4.718;2022-10-16T09:06:08;1.90;;;1.27;;
13927;SDS011;7036;50.834;4.718;2022-10-16T09:14:00;3.77;;;1.67;;
13927;SDS011;7036;50.834;4.718;2022-10-16T09:21:41;3.37;;;1.83;;
13927;SDS011;7036;50.834;4.718;2022-10-16T09:24:13;4.30;;;1.63;;
13927;SDS011;7036;50.834;4.718;2022-10-16T09:26:38;5.53;;;1.87;;
13927;SDS011;7036;50.834;4.718;2022-10-16T09:29:08;2.55;;;1.65;;
13927;SDS011;7036;50.834;4.718;2022-10-16T09:31:35;3.20;;;1.50;;
13927;SDS011;7036;50.834;4.718;2022-10-16T09:34:02;5.10;;;1.77;;
13927;SDS011;7036;50.834;4.718;2022-10-16T09:36:29;4.63;;;1.70;;
13927;SDS011;7036;50.834;4.718;2022-10-16T09:39:03;4.20;;;1.75;;
13927;SDS011;7036;50.834;4.718;2022-10-16T09:41:29;6.10;;;1.63;;
13927;SDS011;7036;50.834;4.718;2022-10-16T09:43:59;3.65;;;1.77;;
13927;SDS011;7036;50.834;4.718;2022-10-16T09:46:34;3.72;;;1.60;;
13927;SDS011;7036;50.834;4.718;2022-10-16T09:48:51;4.30;;;1.67;;
13927;SDS011;7036;50.834;4.718;2022-10-16T09:51:37;3.22;;;1.45;;
13927;SDS011;7036;50.834;4.718;2022-10-16T09:56:37;2.07;;;1.60;;
13927;SDS011;7036;50.834;4.718;2022-10-16T09:59:11;3.33;;;1.50;;
13927;SDS011;7036;50.834;4.718;2022-10-16T10:01:52;3.63;;;1.53;;
13927;SDS011;7036;50.834;4.718;2022-10-16T10:04:19;3.23;;;1.23;;
13927;SDS011;7036;50.834;4.718;2022-10-16T10:06:50;5.07;;;1.60;;
13927;SDS011;7036;50.834;4.718;2022-10-16T10:09:26;3.73;;;1.50;;
13927;SDS011;7036;50.834;4.718;2022-10-16T10:11:57;1.50;;;1.20;;
13927;SDS011;7036;50.834;4.718;2022-10-16T10:14:26;1.40;;;1.25;;
13927;SDS011;7036;50.834;4.718;2022-10-16T10:19:40;2.10;;;1.30;;
13927;SDS011;7036;50.834;4.718;2022-10-16T10:22:13;3.47;;;1.27;;
13927;SDS011;7036;50.834;4.718;2022-10-16T10:24:53;3.93;;;1.33;;
13927;SDS011;7036;50.834;4.718;2022-10-16T10:27:13;2.80;;;1.53;;
13927;SDS011;7036;50.834;4.718;2022-10-16T10:29:46;2.10;;;1.17;;
13927;SDS011;7036;50.834;4.718;2022-10-16T10:39:58;2.17;;;1.40;;
13927;SDS011;7036;50.834;4.718;2022-10-16T10:42:26;2.40;;;1.25;;
13927;SDS011;7036;50.834;4.718;2022-10-16T10:47:47;1.40;;;1.00;;
13927;SDS011;7036;50.834;4.718;2022-10-16T10:50:45;2.97;;;1.27;;
13927;SDS011;7036;50.834;4.718;2022-10-16T11:01:16;2.63;;;1.27;;
13927;SDS011;7036;50.834;4.718;2022-10-16T11:03:13;4.13;;;1.37;;
13927;SDS011;7036;50.834;4.718;2022-10-16T11:05:51;3.53;;;1.80;;
13927;SDS011;7036;50.834;4.718;2022-10-16T11:08:21;3.23;;;2.00;;
13927;SDS011;7036;50.834;4.718;2022-10-16T11:11:05;6.37;;;2.50;;
13927;SDS011;7036;50.834;4.718;2022-10-16T11:16:30;4.93;;;2.93;;
13927;SDS011;7036;50.834;4.718;2022-10-16T11:19:43;5.53;;;3.00;;
13927;SDS011;7036;50.834;4.718;2022-10-16T11:21:30;5.00;;;2.87;;
13927;SDS011;7036;50.834;4.718;2022-10-16T11:24:34;3.25;;;2.42;;
13927;SDS011;7036;50.834;4.718;2022-10-16T11:26:31;3.20;;;2.63;;
13927;SDS011;7036;50.834;4.718;2022-10-16T11:28:57;4.40;;;3.28;;
13927;SDS011;7036;50.834;4.718;2022-10-16T11:31:27;4.13;;;2.53;;
13927;SDS011;7036;50.834;4.718;2022-10-16T11:34:15;6.63;;;2.50;;
13927;SDS011;7036;50.834;4.718;2022-10-16T11:36:39;3.93;;;2.23;;
13927;SDS011;7036;50.834;4.718;2022-10-16T11:39:09;3.35;;;2.28;;
13927;SDS011;7036;50.834;4.718;2022-10-16T11:41:39;3.72;;;2.20;;
13927;SDS011;7036;50.834;4.718;2022-10-16T11:44:14;3.63;;;2.57;;
13927;SDS011;7036;50.834;4.718;2022-10-16T11:46:43;6.57;;;3.10;;
13927;SDS011;7036;50.834;4.718;2022-10-16T11:49:16;8.15;;;2.67;;
13927;SDS011;7036;50.834;4.718;2022-10-16T11:51:42;9.70;;;4.10;;
13927;SDS011;7036;50.834;4.718;2022-10-16T11:54:13;8.27;;;3.58;;
13927;SDS011;7036;50.834;4.718;2022-10-16T11:56:36;10.40;;;3.83;;
13927;SDS011;7036;50.834;4.718;2022-10-16T11:59:25;7.53;;;3.40;;
13927;SDS011;7036;50.834;4.718;2022-10-16T12:01:50;6.83;;;2.93;;
13927;SDS011;7036;50.834;4.718;2022-10-16T12:04:26;9.60;;;3.53;;
13927;SDS011;7036;50.834;4.718;2022-10-16T12:07:04;5.03;;;2.97;;
13927;SDS011;7036;50.834;4.718;2022-10-16T12:09:30;5.53;;;2.90;;
13927;SDS011;7036;50.834;4.718;2022-10-16T12:11:57;7.28;;;2.83;;
13927;SDS011;7036;50.834;4.718;2022-10-16T12:17:02;5.17;;;2.30;;
13927;SDS011;7036;50.834;4.718;2022-10-16T12:19:27;10.23;;;3.08;;
13927;SDS011;7036;50.834;4.718;2022-10-16T12:21:56;6.70;;;3.20;;
13927;SDS011;7036;50.834;4.718;2022-10-16T12:24:27;4.17;;;2.73;;
13927;SDS011;7036;50.834;4.718;2022-10-16T12:26:50;9.20;;;2.97;;
13927;SDS011;7036;50.834;4.718;2022-10-16T12:29:26;7.38;;;2.88;;
13927;SDS011;7036;50.834;4.718;2022-10-16T12:31:46;4.70;;;2.50;;
13927;SDS011;7036;50.834;4.718;2022-10-16T12:34:21;6.28;;;2.70;;
13927;SDS011;7036;50.834;4.718;2022-10-16T12:36:49;4.77;;;2.60;;
13927;SDS011;7036;50.834;4.718;2022-10-16T12:39:20;3.85;;;2.22;;
13927;SDS011;7036;50.834;4.718;2022-10-16T12:41:46;5.80;;;2.27;;
13927;SDS011;7036;50.834;4.718;2022-10-16T12:44:25;6.28;;;2.55;;
13927;SDS011;7036;50.834;4.718;2022-10-16T12:46:52;6.43;;;2.60;;
13927;SDS011;7036;50.834;4.718;2022-10-16T12:49:29;3.72;;;2.25;;
13927;SDS011;7036;50.834;4.718;2022-10-16T12:51:49;6.57;;;2.80;;
13927;SDS011;7036;50.834;4.718;2022-10-16T12:54:21;3.30;;;1.85;;
13927;SDS011;7036;50.834;4.718;2022-10-16T13:02:08;5.07;;;2.43;;
13927;SDS011;7036;50.834;4.718;2022-10-16T13:04:35;3.50;;;1.80;;
13927;SDS011;7036;50.834;4.718;2022-10-16T13:10:01;3.33;;;2.03;;
13927;SDS011;7036;50.834;4.718;2022-10-16T13:15:22;2.50;;;1.90;;
13927;SDS011;7036;50.834;4.718;2022-10-16T13:17:58;3.97;;;2.20;;
13927;SDS011;7036;50.834;4.718;2022-10-16T13:28:22;4.50;;;1.93;;
13927;SDS011;7036;50.834;4.718;2022-10-16T13:30:53;3.75;;;2.25;;
13927;SDS011;7036;50.834;4.718;2022-10-16T13:33:20;5.27;;;2.17;;
13927;SDS011;7036;50.834;4.718;2022-10-16T13:35:49;3.30;;;1.80;;
13927;SDS011;7036;50.834;4.718;2022-10-16T13:38:16;3.80;;;2.27;;
13927;SDS011;7036;50.834;4.718;2022-10-16T13:40:52;3.90;;;1.92;;
13927;SDS011;7036;50.834;4.718;2022-10-16T13:43:25;3.53;;;1.50;;
13927;SDS011;7036;50.834;4.718;2022-10-16T13:45:58;2.88;;;1.85;;
13927;SDS011;7036;50.834;4.718;2022-10-16T13:48:23;3.10;;;2.00;;
13927;SDS011;7036;50.834;4.718;2022-10-16T13:51:04;3.97;;;1.50;;
13927;SDS011;7036;50.834;4.718;2022-10-16T13:53:32;2.77;;;2.10;;
13927;SDS011;7036;50.834;4.718;2022-10-16T13:55:58;3.75;;;1.75;;
13927;SDS011;7036;50.834;4.718;2022-10-16T13:58:25;6.47;;;1.77;;
13927;SDS011;7036;50.834;4.718;2022-10-16T14:00:53;2.28;;;1.73;;
13927;SDS011;7036;50.834;4.718;2022-10-16T14:03:21;4.10;;;1.70;;
13927;SDS011;7036;50.834;4.718;2022-10-16T14:05:50;3.05;;;1.85;;
13927;SDS011;7036;50.834;4.718;2022-10-16T14:08:16;5.15;;;2.00;;
13927;SDS011;7036;50.834;4.718;2022-10-16T14:10:47;3.47;;;1.50;;
13927;SDS011;7036;50.834;4.718;2022-10-16T14:13:13;4.38;;;1.92;;
13927;SDS011;7036;50.834;4.718;2022-10-16T14:15:40;2.05;;;1.58;;
13927;SDS011;7036;50.834;4.718;2022-10-16T14:18:07;3.38;;;1.73;;
13927;SDS011;7036;50.834;4.718;2022-10-16T14:20:35;3.80;;;1.77;;
13927;SDS011;7036;50.834;4.718;2022-10-16T14:23:18;4.63;;;1.90;;
13927;SDS011;7036;50.834;4.718;2022-10-16T14:25:31;3.63;;;1.38;;
13927;SDS011;7036;50.834;4.718;2022-10-16T14:30:31;3.53;;;1.43;;
13927;SDS011;7036;50.834;4.718;2022-10-16T14:32:59;2.50;;;1.42;;
13927;SDS011;7036;50.834;4.718;2022-10-16T14:35:34;2.47;;;1.50;;
13927;SDS011;7036;50.834;4.718;2022-10-16T14:38:03;2.73;;;1.60;;
13927;SDS011;7036;50.834;4.718;2022-10-16T14:40:34;2.58;;;1.48;;
13927;SDS011;7036;50.834;4.718;2022-10-16T14:43:00;3.23;;;1.70;;
13927;SDS011;7036;50.834;4.718;2022-10-16T14:45:28;3.92;;;2.08;;
13927;SDS011;7036;50.834;4.718;2022-10-16T14:47:58;3.58;;;1.75;;
13927;SDS011;7036;50.834;4.718;2022-10-16T14:50:24;2.67;;;1.43;;
13927;SDS011;7036;50.834;4.718;2022-10-16T14:52:52;2.60;;;1.80;;
13927;SDS011;7036;50.834;4.718;2022-10-16T14:55:20;4.25;;;1.73;;
13927;SDS011;7036;50.834;4.718;2022-10-16T14:57:48;2.90;;;1.20;;
13927;SDS011;7036;50.834;4.718;2022-10-16T15:00:17;3.03;;;1.45;;
13927;SDS011;7036;50.834;4.718;2022-10-16T15:02:45;1.63;;;1.30;;
13927;SDS011;7036;50.834;4.718;2022-10-16T15:05:17;1.77;;;1.35;;
13927;SDS011;7036;50.834;4.718;2022-10-16T15:07:43;2.03;;;1.20;;
13927;SDS011;7036;50.834;4.718;2022-10-16T15:10:11;4.13;;;1.65;;
13927;SDS011;7036;50.834;4.718;2022-10-16T15:12:38;5.93;;;1.38;;
13927;SDS011;7036;50.834;4.718;2022-10-16T15:15:21;5.40;;;1.50;;
13927;SDS011;7036;50.834;4.718;2022-10-16T15:17:42;3.93;;;1.93;;
13927;SDS011;7036;50.834;4.718;2022-10-16T15:20:10;4.65;;;1.75;;
13927;SDS011;7036;50.834;4.718;2022-10-16T15:22:38;8.93;;;2.10;;
13927;SDS011;7036;50.834;4.718;2022-10-16T15:25:41;6.60;;;2.03;;
13927;SDS011;7036;50.834;4.718;2022-10-16T15:27:55;4.73;;;1.63;;
13927;SDS011;7036;50.834;4.718;2022-10-16T15:30:21;3.63;;;1.50;;
13927;SDS011;7036;50.834;4.718;2022-10-16T15:32:49;3.55;;;1.42;;
13927;SDS011;7036;50.834;4.718;2022-10-16T15:35:17;3.22;;;1.38;;
13927;SDS011;7036;50.834;4.718;2022-10-16T15:37:45;3.72;;;1.55;;
13927;SDS011;7036;50.834;4.718;2022-10-16T15:40:12;2.55;;;1.35;;
13927;SDS011;7036;50.834;4.718;2022-10-16T15:42:40;2.25;;;1.70;;
13927;SDS011;7036;50.834;4.718;2022-10-16T15:45:09;5.05;;;1.80;;
13927;SDS011;7036;50.834;4.718;2022-10-16T15:47:36;1.83;;;1.27;;
13927;SDS011;7036;50.834;4.718;2022-10-16T15:50:04;6.70;;;1.80;;
13927;SDS011;7036;50.834;4.718;2022-10-16T15:52:31;3.47;;;1.57;;
13927;SDS011;7036;50.834;4.718;2022-10-16T15:54:59;3.80;;;1.45;;
13927;SDS011;7036;50.834;4.718;2022-10-16T15:57:28;4.45;;;1.40;;
13927;SDS011;7036;50.834;4.718;2022-10-16T15:59:55;6.93;;;1.50;;
13927;SDS011;7036;50.834;4.718;2022-10-16T16:02:22;3.35;;;1.45;;
13927;SDS011;7036;50.834;4.718;2022-10-16T16:04:50;3.63;;;1.30;;
13927;SDS011;7036;50.834;4.718;2022-10-16T16:07:19;3.65;;;1.80;;
13927;SDS011;7036;50.834;4.718;2022-10-16T16:09:45;3.63;;;1.53;;
13927;SDS011;7036;50.834;4.718;2022-10-16T16:12:13;3.47;;;1.60;;
13927;SDS011;7036;50.834;4.718;2022-10-16T16:14:41;4.40;;;1.60;;
13927;SDS011;7036;50.834;4.718;2022-10-16T16:17:10;2.15;;;1.40;;
13927;SDS011;7036;50.834;4.718;2022-10-16T16:19:37;3.50;;;1.57;;
13927;SDS011;7036;50.834;4.718;2022-10-16T16:22:05;4.63;;;2.03;;
13927;SDS011;7036;50.834;4.718;2022-10-16T16:24:32;7.15;;;1.55;;
13927;SDS011;7036;50.834;4.718;2022-10-16T16:27:00;3.08;;;1.90;;
13927;SDS011;7036;50.834;4.718;2022-10-16T16:29:28;3.30;;;1.15;;
13927;SDS011;7036;50.834;4.718;2022-10-16T16:31:55;3.22;;;1.42;;
13927;SDS011;7036;50.834;4.718;2022-10-16T16:34:26;4.00;;;1.50;;
13927;SDS011;7036;50.834;4.718;2022-10-16T16:36:51;2.47;;;1.42;;
13927;SDS011;7036;50.834;4.718;2022-10-16T16:39:19;2.70;;;1.50;;